createdAt,value
2022-11-01T00:02:08.300Z,7.47
2022-11-01T00:04:35.031Z,6.78
2022-11-01T00:07:01.782Z,7.03
2022-11-01T00:09:28.373Z,7.13
2022-11-01T00:11:55.028Z,6.63
2022-11-01T00:14:21.946Z,7.40
2022-11-01T00:16:49.067Z,6.10
2022-11-01T00:19:15.859Z,6.53
2022-11-01T00:21:42.924Z,6.88
2022-11-01T00:24:10.056Z,6.63
2022-11-01T00:26:36.772Z,6.05
2022-11-01T00:29:04.013Z,6.78
2022-11-01T00:31:30.726Z,6.68
2022-11-01T00:33:57.427Z,6.00
2022-11-01T00:36:24.237Z,6.53
2022-11-01T00:38:52.367Z,7.00
2022-11-01T00:41:20.933Z,6.35
2022-11-01T00:43:53.543Z,6.32
2022-11-01T00:46:20.228Z,5.95
2022-11-01T00:48:47.083Z,5.63
2022-11-01T00:51:13.879Z,5.70
2022-11-01T00:53:40.644Z,6.22
2022-11-01T00:56:08.310Z,6.60
2022-11-01T00:58:35.625Z,6.10
2022-11-01T01:01:02.619Z,5.90
2022-11-01T01:03:29.599Z,5.45
2022-11-01T01:05:56.817Z,5.43
2022-11-01T01:08:23.892Z,5.88
2022-11-01T01:10:50.994Z,5.25
2022-11-01T01:13:18.041Z,5.53
2022-11-01T01:15:44.816Z,4.93
2022-11-01T01:18:12.657Z,5.70
2022-11-01T01:20:39.420Z,4.70
2022-11-01T01:23:06.181Z,4.60
2022-11-01T01:25:32.881Z,4.47
2022-11-01T01:27:59.921Z,4.28
2022-11-01T01:30:27.381Z,4.47
2022-11-01T01:32:54.227Z,5.05
2022-11-01T01:35:20.813Z,4.18
2022-11-01T01:37:47.443Z,4.70
2022-11-01T01:40:14.153Z,4.32
2022-11-01T01:42:42.948Z,5.50
2022-11-01T01:45:31.379Z,3.95
2022-11-01T01:48:09.778Z,4.13
2022-11-01T01:51:08.228Z,3.83
2022-11-01T01:53:38.717Z,4.43
2022-11-01T01:56:33.860Z,4.40
2022-11-01T01:59:05.326Z,4.18
2022-11-01T02:01:34.319Z,4.55
2022-11-01T02:04:02.627Z,4.30
2022-11-01T02:06:29.280Z,4.40
2022-11-01T02:08:59.781Z,3.95
2022-11-01T02:11:26.404Z,3.92
2022-11-01T02:13:53.118Z,4.50
2022-11-01T02:16:33.400Z,4.47
2022-11-01T02:19:17.937Z,5.38
2022-11-01T02:22:01.966Z,3.97
2022-11-01T02:25:01.455Z,4.15
2022-11-01T02:28:20.542Z,4.20
2022-11-01T02:30:56.467Z,4.68
2022-11-01T02:33:44.391Z,4.88
2022-11-01T02:36:24.781Z,3.83
2022-11-01T02:38:56.858Z,4.30
2022-11-01T02:42:31.024Z,4.72
2022-11-01T02:45:31.757Z,3.83
2022-11-01T02:48:00.356Z,5.10
2022-11-01T02:50:32.221Z,4.38
2022-11-01T02:53:00.660Z,3.90
2022-11-01T02:55:30.901Z,4.22
2022-11-01T02:58:04.612Z,3.50
2022-11-01T03:00:34.965Z,3.95
2022-11-01T03:03:31.106Z,3.80
2022-11-01T03:06:00.527Z,3.58
2022-11-01T03:08:37.370Z,4.25
2022-11-01T03:11:12.828Z,3.83
2022-11-01T03:13:58.015Z,4.15
2022-11-01T03:16:45.853Z,3.90
2022-11-01T03:19:39.192Z,3.70
2022-11-01T03:22:23.614Z,3.33
2022-11-01T03:25:30.413Z,3.17
2022-11-01T03:28:00.619Z,3.63
2022-11-01T03:30:31.648Z,4.38
2022-11-01T03:32:58.872Z,3.45
2022-11-01T03:35:29.451Z,3.70
2022-11-01T03:38:04.777Z,3.30
2022-11-01T03:40:34.411Z,3.78
2022-11-01T03:43:05.787Z,3.45
2022-11-01T03:45:37.961Z,3.92
2022-11-01T03:48:05.960Z,3.30
2022-11-01T03:50:33.177Z,3.80
2022-11-01T03:53:00.153Z,3.33
2022-11-01T03:55:26.774Z,3.75
2022-11-01T03:57:55.523Z,3.53
2022-11-01T04:00:33.400Z,3.22
2022-11-01T04:03:00.943Z,3.03
2022-11-01T04:05:29.565Z,3.40
2022-11-01T04:07:56.606Z,3.25
2022-11-01T04:10:25.180Z,3.45
2022-11-01T04:12:52.017Z,3.47
2022-11-01T04:15:38.659Z,3.55
2022-11-01T04:18:35.122Z,3.75
2022-11-01T04:21:06.661Z,3.72
2022-11-01T04:23:34.110Z,4.28
2022-11-01T04:26:01.642Z,3.85
2022-11-01T04:28:28.657Z,3.33
2022-11-01T04:30:55.552Z,3.60
2022-11-01T04:33:22.182Z,4.05
2022-11-01T04:35:48.988Z,3.35
2022-11-01T04:38:16.124Z,3.40
2022-11-01T04:40:43.654Z,3.00
2022-11-01T04:43:11.199Z,3.55
2022-11-01T04:45:38.164Z,3.05
2022-11-01T04:48:05.207Z,3.53
2022-11-01T04:50:33.307Z,4.07
2022-11-01T04:53:01.093Z,3.08
2022-11-01T04:55:28.605Z,3.20
2022-11-01T04:57:55.488Z,3.15
2022-11-01T05:00:25.333Z,3.65
2022-11-01T05:02:52.961Z,3.47
2022-11-01T05:05:19.964Z,4.38
2022-11-01T05:07:46.574Z,3.15
2022-11-01T05:10:13.257Z,3.10
2022-11-01T05:12:40.009Z,3.08
2022-11-01T05:15:07.438Z,3.35
2022-11-01T05:17:34.120Z,3.20
2022-11-01T05:20:00.933Z,3.17
2022-11-01T05:22:27.533Z,3.05
2022-11-01T05:24:54.364Z,3.58
2022-11-01T05:27:21.144Z,3.15
2022-11-01T05:29:47.744Z,3.35
2022-11-01T05:32:14.369Z,3.05
2022-11-01T05:34:41.115Z,3.33
2022-11-01T05:37:07.790Z,3.30
2022-11-01T05:39:34.360Z,3.20
2022-11-01T05:42:02.907Z,2.90
2022-11-01T05:44:29.849Z,3.40
2022-11-01T05:46:56.693Z,3.88
2022-11-01T05:49:23.496Z,3.25
2022-11-01T05:51:50.522Z,2.90
2022-11-01T05:54:17.166Z,3.17
2022-11-01T05:56:43.850Z,3.45
2022-11-01T05:59:10.465Z,3.58
2022-11-01T06:01:37.126Z,3.28
2022-11-01T06:04:03.943Z,2.80
2022-11-01T06:06:31.424Z,3.13
2022-11-01T06:08:59.821Z,3.10
2022-11-01T06:11:27.631Z,3.30
2022-11-01T06:13:55.548Z,3.42
2022-11-01T06:16:23.058Z,3.03
2022-11-01T06:18:50.129Z,3.17
2022-11-01T06:21:16.807Z,3.35
2022-11-01T06:23:48.494Z,2.42
2022-11-01T06:26:15.224Z,2.83
2022-11-01T06:28:41.925Z,3.20
2022-11-01T06:31:08.952Z,2.67
2022-11-01T06:33:35.690Z,3.60
2022-11-01T06:36:02.806Z,3.30
2022-11-01T06:38:29.506Z,3.03
2022-11-01T06:40:56.859Z,2.63
2022-11-01T06:43:23.478Z,3.20
2022-11-01T06:45:50.286Z,2.90
2022-11-01T06:48:16.923Z,2.50
2022-11-01T06:50:43.543Z,3.00
2022-11-01T06:53:10.457Z,2.95
2022-11-01T06:55:37.599Z,2.60
2022-11-01T06:58:05.052Z,2.00
2022-11-01T07:00:32.669Z,1.98
2022-11-01T07:03:07.635Z,1.73
2022-11-01T07:05:37.525Z,1.55
2022-11-01T07:08:07.380Z,1.58
2022-11-01T07:10:35.525Z,1.20
2022-11-01T07:13:04.064Z,1.60
2022-11-01T07:15:31.587Z,1.45
2022-11-01T07:18:00.363Z,1.55
2022-11-01T07:20:29.207Z,1.30
2022-11-01T07:23:04.746Z,1.17
2022-11-01T07:27:59.817Z,1.40
2022-11-01T07:30:27.533Z,1.00
2022-11-01T07:32:58.818Z,1.10
2022-11-01T07:35:27.715Z,1.05
2022-11-01T07:37:59.378Z,1.35
2022-11-01T07:40:30.356Z,1.10
2022-11-01T07:43:00.098Z,1.00
2022-11-01T07:45:28.998Z,1.23
2022-11-01T07:48:06.794Z,1.08
2022-11-01T07:50:34.424Z,1.10
2022-11-01T07:53:01.814Z,1.10
2022-11-01T07:55:28.918Z,0.90
2022-11-01T07:57:55.908Z,1.10
2022-11-01T08:00:23.495Z,1.00
2022-11-01T08:02:50.784Z,0.98
2022-11-01T08:05:18.089Z,1.00
2022-11-01T08:07:44.689Z,1.27
2022-11-01T08:10:16.223Z,1.00
2022-11-01T08:12:42.881Z,0.90
2022-11-01T08:15:10.132Z,1.10
2022-11-01T08:17:36.814Z,1.10
2022-11-01T08:20:04.377Z,0.95
2022-11-01T08:22:31.109Z,0.88
2022-11-01T08:24:57.865Z,0.90
2022-11-01T08:27:24.557Z,1.08
2022-11-01T08:29:51.313Z,1.20
2022-11-01T08:32:22.102Z,1.00
2022-11-01T08:34:49.171Z,0.90
2022-11-01T08:37:15.943Z,0.90
2022-11-01T08:39:42.717Z,0.85
2022-11-01T08:42:11.445Z,1.00
2022-11-01T08:44:38.254Z,1.02
2022-11-01T08:47:05.124Z,0.95
2022-11-01T08:49:31.822Z,1.05
2022-11-01T08:51:58.497Z,0.90
2022-11-01T08:54:25.243Z,1.05
2022-11-01T08:56:51.854Z,0.95
2022-11-01T08:59:18.489Z,1.15
2022-11-01T09:01:45.372Z,1.10
2022-11-01T09:04:12.561Z,0.90
2022-11-01T09:06:39.195Z,0.90
2022-11-01T09:09:06.086Z,1.10
2022-11-01T09:11:32.725Z,0.93
2022-11-01T09:13:59.322Z,0.90
2022-11-01T09:16:26.069Z,1.27
2022-11-01T09:18:52.703Z,0.95
2022-11-01T09:21:19.438Z,0.90
2022-11-01T09:23:49.190Z,0.95
2022-11-01T09:26:15.867Z,1.05
2022-11-01T09:28:42.534Z,1.23
2022-11-01T09:31:21.124Z,1.48
2022-11-01T09:33:48.352Z,1.30
2022-11-01T09:36:15.073Z,1.20
2022-11-01T09:38:41.674Z,1.40
2022-11-01T09:41:29.665Z,1.40
2022-11-01T09:43:59.432Z,1.67
2022-11-01T09:46:31.421Z,1.63
2022-11-01T09:49:03.707Z,1.27
2022-11-01T09:51:30.538Z,1.40
2022-11-01T09:54:02.142Z,1.33
2022-11-01T09:56:36.583Z,1.40
2022-11-01T09:59:29.971Z,0.95
2022-11-01T10:02:25.739Z,1.25
2022-11-01T10:05:00.994Z,1.50
2022-11-01T10:07:52.611Z,1.30
2022-11-01T10:10:36.864Z,1.30
2022-11-01T10:13:37.523Z,1.27
2022-11-01T10:16:25.833Z,1.20
2022-11-01T10:19:03.052Z,1.00
2022-11-01T10:21:49.370Z,1.38
2022-11-01T10:24:36.744Z,1.40
2022-11-01T10:27:23.587Z,1.40
2022-11-01T10:30:17.494Z,1.40
2022-11-01T10:32:50.618Z,1.40
2022-11-01T10:35:30.989Z,1.35
2022-11-01T10:38:32.254Z,1.30
2022-11-01T10:43:49.852Z,1.63
2022-11-01T10:46:26.166Z,1.40
2022-11-01T10:48:57.849Z,1.10
2022-11-01T10:51:27.983Z,1.50
2022-11-01T10:54:02.559Z,1.73
2022-11-01T10:59:07.310Z,1.15
2022-11-01T11:01:42.735Z,1.10
2022-11-01T11:04:15.904Z,1.20
2022-11-01T11:06:43.778Z,1.20
2022-11-01T11:09:22.814Z,1.08
2022-11-01T11:11:50.887Z,1.33
2022-11-01T11:14:20.325Z,1.55
2022-11-01T11:16:51.787Z,1.17
2022-11-01T11:19:38.467Z,1.25
2022-11-01T11:22:09.597Z,1.10
2022-11-01T11:24:43.065Z,1.17
2022-11-01T11:27:21.342Z,1.13
2022-11-01T11:29:52.066Z,1.30
2022-11-01T11:32:26.550Z,1.10
2022-11-01T11:35:16.550Z,1.07
2022-11-01T11:37:55.536Z,1.00
2022-11-01T11:40:24.454Z,1.20
2022-11-01T11:42:53.783Z,1.10
2022-11-01T11:45:29.920Z,0.90
2022-11-01T11:48:14.138Z,1.10
2022-11-01T11:50:41.737Z,1.08
2022-11-01T11:53:23.395Z,1.10
2022-11-01T11:55:56.289Z,1.05
2022-11-01T11:58:36.253Z,1.15
2022-11-01T12:01:22.912Z,1.00
2022-11-01T12:03:53.928Z,1.00
2022-11-01T12:06:24.931Z,0.85
2022-11-01T12:09:33.129Z,1.20
2022-11-01T12:12:07.582Z,1.27
2022-11-01T12:14:38.601Z,1.13
2022-11-01T12:17:25.804Z,1.48
2022-11-01T12:22:39.926Z,1.20
2022-11-01T12:25:24.922Z,1.10
2022-11-01T12:27:56.516Z,1.50
2022-11-01T12:30:25.158Z,1.02
2022-11-01T12:33:00.368Z,1.17
2022-11-01T12:35:34.721Z,1.15
2022-11-01T12:38:07.530Z,1.67
2022-11-01T12:40:38.025Z,1.02
2022-11-01T12:43:16.643Z,1.10
2022-11-01T12:45:52.682Z,1.00
2022-11-01T12:48:59.814Z,1.10
2022-11-01T12:51:31.404Z,1.08
2022-11-01T12:54:12.291Z,0.95
2022-11-01T12:56:40.000Z,1.10
2022-11-01T12:59:12.262Z,1.10
2022-11-01T13:02:20.019Z,1.20
2022-11-01T13:05:02.459Z,1.08
2022-11-01T13:07:39.722Z,1.42
2022-11-01T13:12:49.049Z,1.05
2022-11-01T13:15:30.068Z,1.15
2022-11-01T13:17:59.780Z,1.15
2022-11-01T13:20:53.356Z,1.38
2022-11-01T13:23:53.228Z,1.20
2022-11-01T13:26:25.636Z,1.08
2022-11-01T13:29:22.775Z,1.30
2022-11-01T13:32:18.156Z,0.82
2022-11-01T13:34:47.598Z,1.30
2022-11-01T13:37:30.126Z,1.20
2022-11-01T13:40:06.170Z,1.48
2022-11-01T13:42:41.863Z,1.00
2022-11-01T13:45:21.813Z,1.05
2022-11-01T13:47:51.233Z,0.88
2022-11-01T13:50:36.458Z,0.90
2022-11-01T13:53:31.630Z,0.82
2022-11-01T13:56:04.601Z,1.30
2022-11-01T13:58:33.490Z,0.65
2022-11-01T14:01:35.739Z,0.80
2022-11-01T14:04:11.500Z,1.13
2022-11-01T14:06:43.189Z,1.00
2022-11-01T14:09:27.966Z,1.48
2022-11-01T14:12:11.483Z,1.13
2022-11-01T14:14:47.467Z,0.85
2022-11-01T14:17:20.214Z,1.40
2022-11-01T14:20:08.686Z,1.42
2022-11-01T14:22:35.410Z,0.90
2022-11-01T14:25:31.742Z,1.50
2022-11-01T14:28:21.010Z,1.30
2022-11-01T14:30:49.726Z,1.00
2022-11-01T14:33:19.639Z,0.98
2022-11-01T14:35:52.876Z,1.15
2022-11-01T14:38:29.221Z,1.17
2022-11-01T14:40:59.116Z,1.20
2022-11-01T14:43:33.093Z,1.05
2022-11-01T14:46:02.865Z,1.13
2022-11-01T14:48:38.520Z,1.02
2022-11-01T14:51:21.943Z,1.00
2022-11-01T14:53:54.713Z,1.25
2022-11-01T14:56:30.577Z,1.13
2022-11-01T14:59:22.138Z,1.50
2022-11-01T15:01:51.868Z,1.13
2022-11-01T15:04:24.727Z,1.98
2022-11-01T15:06:52.106Z,1.15
2022-11-01T15:09:24.318Z,1.48
2022-11-01T15:11:54.305Z,1.20
2022-11-01T15:16:54.782Z,1.17
2022-11-01T15:19:28.003Z,1.05
2022-11-01T15:22:01.235Z,1.38
2022-11-01T15:27:07.609Z,1.30
2022-11-01T15:32:24.538Z,1.00
2022-11-01T15:34:53.047Z,1.55
2022-11-01T15:37:25.164Z,1.60
2022-11-01T15:39:51.889Z,1.40
2022-11-01T15:42:31.550Z,1.60
2022-11-01T15:44:58.347Z,1.40
2022-11-01T15:47:28.296Z,1.20
2022-11-01T15:50:06.154Z,1.52
2022-11-01T15:52:35.722Z,1.08
2022-11-01T15:55:21.105Z,1.33
2022-11-01T15:57:57.900Z,1.40
2022-11-01T16:00:34.048Z,1.60
2022-11-01T16:03:16.153Z,1.35
2022-11-01T16:05:48.889Z,1.67
2022-11-01T16:08:24.650Z,1.58
